sensor_id;sensor_type;location;lat;lon;timestamp;temperature;humidity
11454;DHT22;5783;55.174;61.310;2023-04-09T00:02:27;19.30;25.10
11454;DHT22;5783;55.174;61.310;2023-04-09T00:04:56;19.30;25.10
11454;DHT22;5783;55.174;61.310;2023-04-09T00:07:25;19.30;25.10
11454;DHT22;5783;55.174;61.310;2023-04-09T00:09:54;19.30;25.20
11454;DHT22;5783;55.174;61.310;2023-04-09T00:12:23;19.30;25.20
11454;DHT22;5783;55.174;61.310;2023-04-09T00:14:52;19.30;25.20
11454;DHT22;5783;55.174;61.310;2023-04-09T00:17:21;19.20;25.20
11454;DHT22;5783;55.174;61.310;2023-04-09T00:19:51;19.30;25.10
11454;DHT22;5783;55.174;61.310;2023-04-09T00:22:20;19.30;25.00
11454;DHT22;5783;55.174;61.310;2023-04-09T00:24:49;19.30;25.00
11454;DHT22;5783;55.174;61.310;2023-04-09T00:27:18;19.30;24.80
11454;DHT22;5783;55.174;61.310;2023-04-09T00:29:47;19.30;24.80
11454;DHT22;5783;55.174;61.310;2023-04-09T00:32:16;19.30;24.90
11454;DHT22;5783;55.174;61.310;2023-04-09T00:34:46;19.30;24.80
11454;DHT22;5783;55.174;61.310;2023-04-09T00:37:16;19.30;24.70
11454;DHT22;5783;55.174;61.310;2023-04-09T00:39:45;19.30;24.60
11454;DHT22;5783;55.174;61.310;2023-04-09T00:42:14;19.30;24.80
11454;DHT22;5783;55.174;61.310;2023-04-09T00:44:43;19.30;24.80
11454;DHT22;5783;55.174;61.310;2023-04-09T00:47:12;19.30;24.80
11454;DHT22;5783;55.174;61.310;2023-04-09T00:49:41;19.20;25.00
11454;DHT22;5783;55.174;61.310;2023-04-09T00:52:10;19.20;25.10
11454;DHT22;5783;55.174;61.310;2023-04-09T00:54:40;19.20;25.00
11454;DHT22;5783;55.174;61.310;2023-04-09T00:57:09;19.20;25.00
11454;DHT22;5783;55.174;61.310;2023-04-09T00:59:38;19.20;25.00
11454;DHT22;5783;55.174;61.310;2023-04-09T01:02:07;19.20;25.10
11454;DHT22;5783;55.174;61.310;2023-04-09T01:04:39;19.20;25.20
11454;DHT22;5783;55.174;61.310;2023-04-09T01:09:46;19.10;25.20
11454;DHT22;5783;55.174;61.310;2023-04-09T01:15:59;19.20;25.40
11454;DHT22;5783;55.174;61.310;2023-04-09T01:18:51;19.10;24.90
11454;DHT22;5783;55.174;61.310;2023-04-09T01:21:05;19.10;25.20
11454;DHT22;5783;55.174;61.310;2023-04-09T01:32:25;19.10;25.20
11454;DHT22;5783;55.174;61.310;2023-04-09T01:34:56;19.10;24.90
11454;DHT22;5783;55.174;61.310;2023-04-09T01:37:27;19.10;25.00
11454;DHT22;5783;55.174;61.310;2023-04-09T01:39:56;19.10;24.80
11454;DHT22;5783;55.174;61.310;2023-04-09T01:42:27;19.10;24.70
11454;DHT22;5783;55.174;61.310;2023-04-09T01:44:57;19.10;24.90
11454;DHT22;5783;55.174;61.310;2023-04-09T01:47:27;19.10;24.90
11454;DHT22;5783;55.174;61.310;2023-04-09T01:49:57;19.10;24.90
11454;DHT22;5783;55.174;61.310;2023-04-09T01:52:27;19.10;24.70
11454;DHT22;5783;55.174;61.310;2023-04-09T01:54:56;19.10;24.70
11454;DHT22;5783;55.174;61.310;2023-04-09T01:57:26;19.10;24.90
11454;DHT22;5783;55.174;61.310;2023-04-09T01:59:55;19.10;24.50
11454;DHT22;5783;55.174;61.310;2023-04-09T02:04:57;19.10;25.00
11454;DHT22;5783;55.174;61.310;2023-04-09T02:10:21;19.10;25.10
11454;DHT22;5783;55.174;61.310;2023-04-09T02:12:51;19.10;25.30
11454;DHT22;5783;55.174;61.310;2023-04-09T02:15:21;19.10;25.30
11454;DHT22;5783;55.174;61.310;2023-04-09T02:17:51;19.10;25.40
11454;DHT22;5783;55.174;61.310;2023-04-09T02:20:21;19.10;25.40
11454;DHT22;5783;55.174;61.310;2023-04-09T02:22:50;19.10;25.40
11454;DHT22;5783;55.174;61.310;2023-04-09T02:25:22;19.20;25.30
11454;DHT22;5783;55.174;61.310;2023-04-09T02:27:50;19.20;25.40
11454;DHT22;5783;55.174;61.310;2023-04-09T02:30:19;19.20;25.40
11454;DHT22;5783;55.174;61.310;2023-04-09T02:32:48;19.30;25.20
11454;DHT22;5783;55.174;61.310;2023-04-09T02:35:17;19.30;25.20
11454;DHT22;5783;55.174;61.310;2023-04-09T02:37:46;19.20;25.00
11454;DHT22;5783;55.174;61.310;2023-04-09T02:40:15;19.20;25.10
11454;DHT22;5783;55.174;61.310;2023-04-09T02:42:44;19.20;25.10
11454;DHT22;5783;55.174;61.310;2023-04-09T02:45:14;19.20;24.80
11454;DHT22;5783;55.174;61.310;2023-04-09T02:47:43;19.20;24.80
11454;DHT22;5783;55.174;61.310;2023-04-09T04:04:34;21.70;21.50
11454;DHT22;5783;55.174;61.310;2023-04-09T04:07:03;22.20;20.50
11454;DHT22;5783;55.174;61.310;2023-04-09T04:09:35;22.00;20.60
11454;DHT22;5783;55.174;61.310;2023-04-09T04:12:04;21.80;20.70
11454;DHT22;5783;55.174;61.310;2023-04-09T04:14:33;21.70;20.80
11454;DHT22;5783;55.174;61.310;2023-04-09T04:17:03;21.60;21.00
11454;DHT22;5783;55.174;61.310;2023-04-09T04:19:32;21.40;21.10
11454;DHT22;5783;55.174;61.310;2023-04-09T04:22:01;21.40;21.20
11454;DHT22;5783;55.174;61.310;2023-04-09T04:24:30;21.40;21.20
11454;DHT22;5783;55.174;61.310;2023-04-09T04:26:59;21.30;21.30
11454;DHT22;5783;55.174;61.310;2023-04-09T04:29:28;21.20;21.40
11454;DHT22;5783;55.174;61.310;2023-04-09T04:31:57;21.20;21.50
11454;DHT22;5783;55.174;61.310;2023-04-09T04:34:27;21.10;21.60
11454;DHT22;5783;55.174;61.310;2023-04-09T04:36:56;21.10;21.60
11454;DHT22;5783;55.174;61.310;2023-04-09T04:39:25;21.20;21.60
11454;DHT22;5783;55.174;61.310;2023-04-09T04:41:54;21.20;21.50
11454;DHT22;5783;55.174;61.310;2023-04-09T04:44:23;21.20;21.60
11454;DHT22;5783;55.174;61.310;2023-04-09T04:46:52;21.20;21.60
11454;DHT22;5783;55.174;61.310;2023-04-09T04:49:21;21.20;21.50
11454;DHT22;5783;55.174;61.310;2023-04-09T04:51:51;21.20;21.50
11454;DHT22;5783;55.174;61.310;2023-04-09T04:54:20;21.20;21.60
11454;DHT22;5783;55.174;61.310;2023-04-09T04:56:49;21.20;21.50
11454;DHT22;5783;55.174;61.310;2023-04-09T04:59:18;21.30;21.90
11454;DHT22;5783;55.174;61.310;2023-04-09T05:01:47;21.50;21.10
11454;DHT22;5783;55.174;61.310;2023-04-09T05:04:16;21.70;20.00
11454;DHT22;5783;55.174;61.310;2023-04-09T05:06:46;21.80;18.90
11454;DHT22;5783;55.174;61.310;2023-04-09T05:09:15;21.80;18.20
11454;DHT22;5783;55.174;61.310;2023-04-09T05:11:44;21.80;18.00
11454;DHT22;5783;55.174;61.310;2023-04-09T05:14:13;21.80;17.90
11454;DHT22;5783;55.174;61.310;2023-04-09T05:16:42;21.70;17.70
11454;DHT22;5783;55.174;61.310;2023-04-09T05:19:11;21.60;17.70
11454;DHT22;5783;55.174;61.310;2023-04-09T05:21:41;21.60;17.60
11454;DHT22;5783;55.174;61.310;2023-04-09T05:24:10;21.60;17.70
11454;DHT22;5783;55.174;61.310;2023-04-09T05:26:39;21.60;17.60
11454;DHT22;5783;55.174;61.310;2023-04-09T05:29:08;21.60;17.60
11454;DHT22;5783;55.174;61.310;2023-04-09T05:31:37;21.60;17.60
11454;DHT22;5783;55.174;61.310;2023-04-09T05:34:08;21.50;17.50
11454;DHT22;5783;55.174;61.310;2023-04-09T05:36:37;21.50;17.70
11454;DHT22;5783;55.174;61.310;2023-04-09T05:39:06;21.50;18.10
11454;DHT22;5783;55.174;61.310;2023-04-09T05:41:36;21.50;18.10
11454;DHT22;5783;55.174;61.310;2023-04-09T05:44:06;21.50;18.10
11454;DHT22;5783;55.174;61.310;2023-04-09T05:46:35;21.60;18.10
11454;DHT22;5783;55.174;61.310;2023-04-09T05:49:04;21.60;18.10
11454;DHT22;5783;55.174;61.310;2023-04-09T05:51:33;21.60;18.50
11454;DHT22;5783;55.174;61.310;2023-04-09T05:54:03;21.60;17.70
11454;DHT22;5783;55.174;61.310;2023-04-09T05:56:32;21.60;17.50
11454;DHT22;5783;55.174;61.310;2023-04-09T05:59:01;21.60;17.50
11454;DHT22;5783;55.174;61.310;2023-04-09T06:01:30;21.50;17.20
11454;DHT22;5783;55.174;61.310;2023-04-09T06:03:59;21.50;17.10
11454;DHT22;5783;55.174;61.310;2023-04-09T06:06:28;21.50;17.00
11454;DHT22;5783;55.174;61.310;2023-04-09T06:08:58;21.50;17.10
11454;DHT22;5783;55.174;61.310;2023-04-09T06:11:27;21.40;16.90
11454;DHT22;5783;55.174;61.310;2023-04-09T06:13:56;21.50;17.00
11454;DHT22;5783;55.174;61.310;2023-04-09T06:16:25;21.50;17.10
11454;DHT22;5783;55.174;61.310;2023-04-09T06:18:55;21.40;17.10
11454;DHT22;5783;55.174;61.310;2023-04-09T06:21:24;21.40;17.20
11454;DHT22;5783;55.174;61.310;2023-04-09T06:23:53;21.40;17.10
11454;DHT22;5783;55.174;61.310;2023-04-09T06:26:22;21.40;17.40
11454;DHT22;5783;55.174;61.310;2023-04-09T06:28:51;21.40;17.00
11454;DHT22;5783;55.174;61.310;2023-04-09T06:31:20;21.30;17.00
11454;DHT22;5783;55.174;61.310;2023-04-09T06:33:50;21.30;17.10
11454;DHT22;5783;55.174;61.310;2023-04-09T06:36:19;21.40;17.00
11454;DHT22;5783;55.174;61.310;2023-04-09T06:38:48;21.30;17.20
11454;DHT22;5783;55.174;61.310;2023-04-09T06:41:19;21.40;17.30
11454;DHT22;5783;55.174;61.310;2023-04-09T06:43:49;21.30;17.30
11454;DHT22;5783;55.174;61.310;2023-04-09T06:46:18;21.30;17.00
11454;DHT22;5783;55.174;61.310;2023-04-09T06:48:48;21.30;17.10
11454;DHT22;5783;55.174;61.310;2023-04-09T06:51:17;21.30;17.10
11454;DHT22;5783;55.174;61.310;2023-04-09T06:53:46;21.30;16.80
11454;DHT22;5783;55.174;61.310;2023-04-09T06:56:15;21.30;17.00
11454;DHT22;5783;55.174;61.310;2023-04-09T06:58:44;21.30;17.20
11454;DHT22;5783;55.174;61.310;2023-04-09T07:01:13;21.30;17.50
11454;DHT22;5783;55.174;61.310;2023-04-09T07:03:43;21.40;17.40
11454;DHT22;5783;55.174;61.310;2023-04-09T07:06:12;21.40;17.70
11454;DHT22;5783;55.174;61.310;2023-04-09T07:08:41;21.50;17.40
11454;DHT22;5783;55.174;61.310;2023-04-09T07:11:10;21.40;17.10
11454;DHT22;5783;55.174;61.310;2023-04-09T07:13:41;21.40;17.00
11454;DHT22;5783;55.174;61.310;2023-04-09T07:16:10;21.40;17.70
11454;DHT22;5783;55.174;61.310;2023-04-09T07:18:39;21.40;17.10
11454;DHT22;5783;55.174;61.310;2023-04-09T07:21:09;21.40;17.00
11454;DHT22;5783;55.174;61.310;2023-04-09T07:24:12;21.40;17.00
11454;DHT22;5783;55.174;61.310;2023-04-09T07:26:09;21.40;17.00
11454;DHT22;5783;55.174;61.310;2023-04-09T07:28:42;21.40;17.40
11454;DHT22;5783;55.174;61.310;2023-04-09T07:31:11;21.40;17.90
11454;DHT22;5783;55.174;61.310;2023-04-09T07:33:40;21.40;17.70
11454;DHT22;5783;55.174;61.310;2023-04-09T07:36:09;21.40;17.40
11454;DHT22;5783;55.174;61.310;2023-04-09T07:38:38;21.30;17.20
11454;DHT22;5783;55.174;61.310;2023-04-09T07:41:29;21.40;17.40
11454;DHT22;5783;55.174;61.310;2023-04-09T07:43:58;21.30;17.10
11454;DHT22;5783;55.174;61.310;2023-04-09T07:46:29;21.30;17.20
11454;DHT22;5783;55.174;61.310;2023-04-09T07:48:58;21.30;17.20
11454;DHT22;5783;55.174;61.310;2023-04-09T07:51:27;21.30;17.40
11454;DHT22;5783;55.174;61.310;2023-04-09T07:53:56;21.30;17.30
11454;DHT22;5783;55.174;61.310;2023-04-09T07:56:26;21.30;17.50
11454;DHT22;5783;55.174;61.310;2023-04-09T07:58:55;21.30;17.30
11454;DHT22;5783;55.174;61.310;2023-04-09T08:01:24;21.20;17.20
11454;DHT22;5783;55.174;61.310;2023-04-09T08:03:53;21.20;17.20
11454;DHT22;5783;55.174;61.310;2023-04-09T08:06:22;21.20;17.20
11454;DHT22;5783;55.174;61.310;2023-04-09T08:08:52;21.20;17.10
11454;DHT22;5783;55.174;61.310;2023-04-09T08:11:21;21.10;17.00
11454;DHT22;5783;55.174;61.310;2023-04-09T08:14:11;21.10;17.10
11454;DHT22;5783;55.174;61.310;2023-04-09T08:19:32;21.20;17.40
11454;DHT22;5783;55.174;61.310;2023-04-09T08:22:01;21.20;17.40
11454;DHT22;5783;55.174;61.310;2023-04-09T08:24:30;21.30;17.50
11454;DHT22;5783;55.174;61.310;2023-04-09T08:27:00;21.30;17.40
11454;DHT22;5783;55.174;61.310;2023-04-09T08:29:29;21.40;17.50
11454;DHT22;5783;55.174;61.310;2023-04-09T08:32:00;21.40;17.70
11454;DHT22;5783;55.174;61.310;2023-04-09T08:34:29;21.40;17.70
11454;DHT22;5783;55.174;61.310;2023-04-09T08:36:58;21.40;17.60
11454;DHT22;5783;55.174;61.310;2023-04-09T08:39:28;21.50;17.60
11454;DHT22;5783;55.174;61.310;2023-04-09T08:41:59;21.50;17.40
11454;DHT22;5783;55.174;61.310;2023-04-09T08:44:48;21.50;17.30
11454;DHT22;5783;55.174;61.310;2023-04-09T08:47:19;21.50;17.20
11454;DHT22;5783;55.174;61.310;2023-04-09T08:49:48;21.50;17.00
11454;DHT22;5783;55.174;61.310;2023-04-09T08:52:18;21.50;17.10
11454;DHT22;5783;55.174;61.310;2023-04-09T08:54:48;21.50;17.20
11454;DHT22;5783;55.174;61.310;2023-04-09T08:57:18;21.60;17.70
11454;DHT22;5783;55.174;61.310;2023-04-09T08:59:47;21.60;17.70
11454;DHT22;5783;55.174;61.310;2023-04-09T09:02:16;21.60;17.50
11454;DHT22;5783;55.174;61.310;2023-04-09T09:04:47;21.60;17.90
11454;DHT22;5783;55.174;61.310;2023-04-09T09:07:17;21.70;17.70
11454;DHT22;5783;55.174;61.310;2023-04-09T09:10:06;21.70;17.70
11454;DHT22;5783;55.174;61.310;2023-04-09T09:12:55;21.70;17.60
11454;DHT22;5783;55.174;61.310;2023-04-09T09:15:26;21.80;17.60
11454;DHT22;5783;55.174;61.310;2023-04-09T09:17:57;21.80;17.80
11454;DHT22;5783;55.174;61.310;2023-04-09T09:20:27;21.80;18.00
11454;DHT22;5783;55.174;61.310;2023-04-09T09:22:56;21.90;17.70
11454;DHT22;5783;55.174;61.310;2023-04-09T09:25:25;21.90;17.60
11454;DHT22;5783;55.174;61.310;2023-04-09T09:28:05;21.80;17.40
11454;DHT22;5783;55.174;61.310;2023-04-09T09:30:28;21.80;17.50
11454;DHT22;5783;55.174;61.310;2023-04-09T09:33:17;21.80;17.50
11454;DHT22;5783;55.174;61.310;2023-04-09T09:36:06;21.90;17.40
11454;DHT22;5783;55.174;61.310;2023-04-09T09:41:27;21.80;17.50
11454;DHT22;5783;55.174;61.310;2023-04-09T09:43:57;21.80;18.00
11454;DHT22;5783;55.174;61.310;2023-04-09T09:46:27;21.80;17.90
11454;DHT22;5783;55.174;61.310;2023-04-09T09:48:59;21.80;17.50
11454;DHT22;5783;55.174;61.310;2023-04-09T09:51:28;21.80;17.40
11454;DHT22;5783;55.174;61.310;2023-04-09T09:53:59;21.80;17.40
11454;DHT22;5783;55.174;61.310;2023-04-09T09:56:48;21.70;17.40
11454;DHT22;5783;55.174;61.310;2023-04-09T09:59:22;21.70;17.50
11454;DHT22;5783;55.174;61.310;2023-04-09T10:05:03;21.80;17.60
11454;DHT22;5783;55.174;61.310;2023-04-09T10:07:33;21.80;17.50
11454;DHT22;5783;55.174;61.310;2023-04-09T10:10:05;21.90;17.90
11454;DHT22;5783;55.174;61.310;2023-04-09T10:12:35;22.00;17.60
11454;DHT22;5783;55.174;61.310;2023-04-09T10:15:04;22.00;17.40
11454;DHT22;5783;55.174;61.310;2023-04-09T10:17:33;22.00;17.40
11454;DHT22;5783;55.174;61.310;2023-04-09T10:26:25;22.10;17.80
11454;DHT22;5783;55.174;61.310;2023-04-09T10:29:15;22.10;17.80
11454;DHT22;5783;55.174;61.310;2023-04-09T10:35:13;22.10;17.50
11454;DHT22;5783;55.174;61.310;2023-04-09T10:37:47;22.20;17.50
11454;DHT22;5783;55.174;61.310;2023-04-09T10:43:24;22.10;17.40
11454;DHT22;5783;55.174;61.310;2023-04-09T10:45:55;22.20;17.30
11454;DHT22;5783;55.174;61.310;2023-04-09T10:48:25;22.20;17.40
11454;DHT22;5783;55.174;61.310;2023-04-09T10:50:55;22.20;17.40
11454;DHT22;5783;55.174;61.310;2023-04-09T10:53:25;22.20;17.50
11454;DHT22;5783;55.174;61.310;2023-04-09T10:55:54;22.30;17.50
11454;DHT22;5783;55.174;61.310;2023-04-09T10:58:23;22.30;17.50
11454;DHT22;5783;55.174;61.310;2023-04-09T11:00:53;22.30;17.40
11454;DHT22;5783;55.174;61.310;2023-04-09T11:03:43;22.30;17.40
11454;DHT22;5783;55.174;61.310;2023-04-09T11:06:14;22.30;17.90
11454;DHT22;5783;55.174;61.310;2023-04-09T11:08:44;22.40;18.50
11454;DHT22;5783;55.174;61.310;2023-04-09T11:11:13;22.40;18.30
11454;DHT22;5783;55.174;61.310;2023-04-09T11:13:42;22.40;17.90
11454;DHT22;5783;55.174;61.310;2023-04-09T11:16:31;22.40;17.70
11454;DHT22;5783;55.174;61.310;2023-04-09T11:19:00;22.50;17.80
11454;DHT22;5783;55.174;61.310;2023-04-09T11:21:31;22.50;17.70
11454;DHT22;5783;55.174;61.310;2023-04-09T11:24:00;22.50;17.40
11454;DHT22;5783;55.174;61.310;2023-04-09T11:26:49;22.50;17.50
11454;DHT22;5783;55.174;61.310;2023-04-09T11:29:18;22.50;17.30
11454;DHT22;5783;55.174;61.310;2023-04-09T11:31:49;22.50;17.20
11454;DHT22;5783;55.174;61.310;2023-04-09T11:34:18;22.50;17.30
11454;DHT22;5783;55.174;61.310;2023-04-09T11:36:48;22.60;17.50
11454;DHT22;5783;55.174;61.310;2023-04-09T11:39:19;22.60;17.80
11454;DHT22;5783;55.174;61.310;2023-04-09T11:41:48;22.60;17.50
11454;DHT22;5783;55.174;61.310;2023-04-09T11:44:19;22.60;17.20
11454;DHT22;5783;55.174;61.310;2023-04-09T11:46:48;22.60;17.20
11454;DHT22;5783;55.174;61.310;2023-04-09T11:49:17;22.60;17.30
11454;DHT22;5783;55.174;61.310;2023-04-09T11:51:47;22.60;17.40
11454;DHT22;5783;55.174;61.310;2023-04-09T11:54:16;22.60;17.60
11454;DHT22;5783;55.174;61.310;2023-04-09T11:56:48;22.60;17.40
11454;DHT22;5783;55.174;61.310;2023-04-09T11:59:19;22.60;17.30
11454;DHT22;5783;55.174;61.310;2023-04-09T12:02:07;22.60;17.50
11454;DHT22;5783;55.174;61.310;2023-04-09T12:04:36;22.60;17.50
11454;DHT22;5783;55.174;61.310;2023-04-09T12:07:07;22.60;17.40
11454;DHT22;5783;55.174;61.310;2023-04-09T12:12:27;22.60;17.80
11454;DHT22;5783;55.174;61.310;2023-04-09T12:14:56;22.60;17.70
11454;DHT22;5783;55.174;61.310;2023-04-09T12:17:25;22.70;17.60
11454;DHT22;5783;55.174;61.310;2023-04-09T12:19:54;22.70;17.60
11454;DHT22;5783;55.174;61.310;2023-04-09T12:22:25;22.80;17.60
11454;DHT22;5783;55.174;61.310;2023-04-09T12:24:54;22.80;17.50
11454;DHT22;5783;55.174;61.310;2023-04-09T12:27:23;22.80;17.60
11454;DHT22;5783;55.174;61.310;2023-04-09T12:29:52;22.80;17.40
11454;DHT22;5783;55.174;61.310;2023-04-09T12:32:21;22.90;17.30
11454;DHT22;5783;55.174;61.310;2023-04-09T12:34:51;22.80;17.10
11454;DHT22;5783;55.174;61.310;2023-04-09T12:37:20;22.80;17.10
11454;DHT22;5783;55.174;61.310;2023-04-09T12:39:49;22.80;17.20
11454;DHT22;5783;55.174;61.310;2023-04-09T12:42:19;22.80;17.10
11454;DHT22;5783;55.174;61.310;2023-04-09T12:44:48;22.80;17.00
11454;DHT22;5783;55.174;61.310;2023-04-09T12:47:17;22.80;17.00
11454;DHT22;5783;55.174;61.310;2023-04-09T12:49:46;22.70;17.00
11454;DHT22;5783;55.174;61.310;2023-04-09T12:52:16;22.70;17.00
11454;DHT22;5783;55.174;61.310;2023-04-09T12:54:45;22.60;17.10
11454;DHT22;5783;55.174;61.310;2023-04-09T12:57:14;22.60;17.10
11454;DHT22;5783;55.174;61.310;2023-04-09T12:59:43;22.50;17.10
11454;DHT22;5783;55.174;61.310;2023-04-09T13:02:12;22.50;17.30
11454;DHT22;5783;55.174;61.310;2023-04-09T13:04:41;22.50;17.40
11454;DHT22;5783;55.174;61.310;2023-04-09T13:07:11;22.50;17.50
11454;DHT22;5783;55.174;61.310;2023-04-09T13:09:41;22.50;17.50
11454;DHT22;5783;55.174;61.310;2023-04-09T13:12:10;22.50;17.70
11454;DHT22;5783;55.174;61.310;2023-04-09T13:14:43;22.50;17.50
11454;DHT22;5783;55.174;61.310;2023-04-09T13:17:13;22.50;17.40
11454;DHT22;5783;55.174;61.310;2023-04-09T13:19:43;22.50;17.40
11454;DHT22;5783;55.174;61.310;2023-04-09T13:22:12;22.40;17.40
11454;DHT22;5783;55.174;61.310;2023-04-09T13:24:41;22.40;17.50
11454;DHT22;5783;55.174;61.310;2023-04-09T13:27:10;22.40;17.50
11454;DHT22;5783;55.174;61.310;2023-04-09T13:29:39;22.40;17.60
11454;DHT22;5783;55.174;61.310;2023-04-09T13:32:09;22.50;17.90
11454;DHT22;5783;55.174;61.310;2023-04-09T13:34:38;22.50;17.80
11454;DHT22;5783;55.174;61.310;2023-04-09T13:37:07;22.50;17.80
11454;DHT22;5783;55.174;61.310;2023-04-09T13:39:37;22.50;17.60
11454;DHT22;5783;55.174;61.310;2023-04-09T13:42:06;22.50;17.70
11454;DHT22;5783;55.174;61.310;2023-04-09T13:44:35;22.50;17.70
11454;DHT22;5783;55.174;61.310;2023-04-09T13:47:06;22.40;17.70
11454;DHT22;5783;55.174;61.310;2023-04-09T13:49:36;22.40;17.80
11454;DHT22;5783;55.174;61.310;2023-04-09T13:52:06;22.40;18.10
11454;DHT22;5783;55.174;61.310;2023-04-09T13:54:36;22.40;18.10
11454;DHT22;5783;55.174;61.310;2023-04-09T13:57:05;22.30;18.40
11454;DHT22;5783;55.174;61.310;2023-04-09T13:59:35;22.30;18.60
11454;DHT22;5783;55.174;61.310;2023-04-09T14:02:06;22.30;20.40
11454;DHT22;5783;55.174;61.310;2023-04-09T14:04:37;22.30;20.00
11454;DHT22;5783;55.174;61.310;2023-04-09T14:07:06;22.30;19.40
11454;DHT22;5783;55.174;61.310;2023-04-09T14:09:35;22.20;18.60
11454;DHT22;5783;55.174;61.310;2023-04-09T14:12:04;22.20;18.30
11454;DHT22;5783;55.174;61.310;2023-04-09T14:14:33;22.10;18.20
11454;DHT22;5783;55.174;61.310;2023-04-09T14:17:03;22.10;19.50
11454;DHT22;5783;55.174;61.310;2023-04-09T14:19:32;22.10;19.20
11454;DHT22;5783;55.174;61.310;2023-04-09T14:22:01;22.00;21.70
11454;DHT22;5783;55.174;61.310;2023-04-09T14:24:32;22.00;20.40
11454;DHT22;5783;55.174;61.310;2023-04-09T14:27:33;22.10;19.60
11454;DHT22;5783;55.174;61.310;2023-04-09T14:29:36;22.10;19.00
11454;DHT22;5783;55.174;61.310;2023-04-09T14:32:05;22.00;18.60
11454;DHT22;5783;55.174;61.310;2023-04-09T14:34:34;22.00;18.40
11454;DHT22;5783;55.174;61.310;2023-04-09T14:37:03;22.00;18.40
11454;DHT22;5783;55.174;61.310;2023-04-09T14:39:32;21.90;18.30
11454;DHT22;5783;55.174;61.310;2023-04-09T14:42:01;22.00;18.40
11454;DHT22;5783;55.174;61.310;2023-04-09T14:44:31;22.00;18.40
11454;DHT22;5783;55.174;61.310;2023-04-09T14:47:00;22.00;18.40
11454;DHT22;5783;55.174;61.310;2023-04-09T14:49:29;22.00;18.40
11454;DHT22;5783;55.174;61.310;2023-04-09T14:51:58;22.00;18.50
11454;DHT22;5783;55.174;61.310;2023-04-09T14:54:27;22.00;18.40
11454;DHT22;5783;55.174;61.310;2023-04-09T14:56:57;22.00;18.30
11454;DHT22;5783;55.174;61.310;2023-04-09T14:59:28;22.00;18.30
11454;DHT22;5783;55.174;61.310;2023-04-09T15:01:57;22.00;18.30
11454;DHT22;5783;55.174;61.310;2023-04-09T15:04:26;22.00;18.80
11454;DHT22;5783;55.174;61.310;2023-04-09T15:06:55;21.90;19.00
11454;DHT22;5783;55.174;61.310;2023-04-09T15:09:24;21.90;19.30
11454;DHT22;5783;55.174;61.310;2023-04-09T15:11:53;21.80;19.60
11454;DHT22;5783;55.174;61.310;2023-04-09T15:14:23;21.70;20.00
11454;DHT22;5783;55.174;61.310;2023-04-09T15:16:52;21.60;20.00
11454;DHT22;5783;55.174;61.310;2023-04-09T15:19:21;21.50;20.30
11454;DHT22;5783;55.174;61.310;2023-04-09T15:21:50;21.50;20.40
11454;DHT22;5783;55.174;61.310;2023-04-09T15:24:20;21.50;20.80
11454;DHT22;5783;55.174;61.310;2023-04-09T15:26:49;21.40;20.70
11454;DHT22;5783;55.174;61.310;2023-04-09T15:29:18;21.40;21.20
11454;DHT22;5783;55.174;61.310;2023-04-09T15:31:47;21.40;21.40
11454;DHT22;5783;55.174;61.310;2023-04-09T15:34:16;21.40;21.40
11454;DHT22;5783;55.174;61.310;2023-04-09T15:36:46;21.40;21.60
11454;DHT22;5783;55.174;61.310;2023-04-09T15:39:15;21.40;21.60
11454;DHT22;5783;55.174;61.310;2023-04-09T15:41:44;21.40;21.70
11454;DHT22;5783;55.174;61.310;2023-04-09T15:44:13;21.40;22.10
11454;DHT22;5783;55.174;61.310;2023-04-09T15:46:42;21.40;22.10
11454;DHT22;5783;55.174;61.310;2023-04-09T15:49:12;21.40;22.10
11454;DHT22;5783;55.174;61.310;2023-04-09T15:51:41;21.40;22.20
11454;DHT22;5783;55.174;61.310;2023-04-09T15:54:11;21.40;21.90
11454;DHT22;5783;55.174;61.310;2023-04-09T15:56:40;21.40;22.40
11454;DHT22;5783;55.174;61.310;2023-04-09T15:59:09;21.40;22.40
11454;DHT22;5783;55.174;61.310;2023-04-09T16:01:39;21.40;22.40
11454;DHT22;5783;55.174;61.310;2023-04-09T16:04:08;21.40;22.50
11454;DHT22;5783;55.174;61.310;2023-04-09T16:06:37;21.30;22.50
11454;DHT22;5783;55.174;61.310;2023-04-09T16:09:07;21.20;22.60
11454;DHT22;5783;55.174;61.310;2023-04-09T16:11:36;21.20;22.80
11454;DHT22;5783;55.174;61.310;2023-04-09T16:14:06;21.10;22.90
11454;DHT22;5783;55.174;61.310;2023-04-09T16:16:35;21.10;22.90
11454;DHT22;5783;55.174;61.310;2023-04-09T16:19:05;21.10;22.90
11454;DHT22;5783;55.174;61.310;2023-04-09T16:21:34;21.00;22.90
11454;DHT22;5783;55.174;61.310;2023-04-09T16:24:04;21.00;22.90
11454;DHT22;5783;55.174;61.310;2023-04-09T16:26:33;21.00;23.00
11454;DHT22;5783;55.174;61.310;2023-04-09T16:29:02;20.90;23.10
11454;DHT22;5783;55.174;61.310;2023-04-09T16:31:31;20.90;23.10
11454;DHT22;5783;55.174;61.310;2023-04-09T16:34:01;20.90;23.30
11454;DHT22;5783;55.174;61.310;2023-04-09T16:36:30;20.80;23.40
11454;DHT22;5783;55.174;61.310;2023-04-09T16:39:02;20.80;23.30
11454;DHT22;5783;55.174;61.310;2023-04-09T16:41:32;20.80;23.10
11454;DHT22;5783;55.174;61.310;2023-04-09T16:44:01;20.80;23.50
11454;DHT22;5783;55.174;61.310;2023-04-09T16:46:30;20.80;23.60
11454;DHT22;5783;55.174;61.310;2023-04-09T16:48:59;20.80;23.60
11454;DHT22;5783;55.174;61.310;2023-04-09T16:51:28;20.80;23.60
11454;DHT22;5783;55.174;61.310;2023-04-09T16:53:57;20.80;23.50
11454;DHT22;5783;55.174;61.310;2023-04-09T16:56:27;20.80;23.50
11454;DHT22;5783;55.174;61.310;2023-04-09T16:58:56;20.80;23.80
11454;DHT22;5783;55.174;61.310;2023-04-09T17:01:25;20.80;23.40
11454;DHT22;5783;55.174;61.310;2023-04-09T17:03:56;20.80;23.90
11454;DHT22;5783;55.174;61.310;2023-04-09T17:06:27;20.80;23.90
11454;DHT22;5783;55.174;61.310;2023-04-09T17:08:56;20.80;23.90
11454;DHT22;5783;55.174;61.310;2023-04-09T17:11:26;20.70;23.80
11454;DHT22;5783;55.174;61.310;2023-04-09T17:13:55;20.70;23.90
11454;DHT22;5783;55.174;61.310;2023-04-09T17:16:24;20.70;24.40
11454;DHT22;5783;55.174;61.310;2023-04-09T17:18:53;20.70;24.10
11454;DHT22;5783;55.174;61.310;2023-04-09T17:21:22;20.70;24.00
11454;DHT22;5783;55.174;61.310;2023-04-09T17:23:52;20.70;24.20
11454;DHT22;5783;55.174;61.310;2023-04-09T17:26:21;20.70;24.20
11454;DHT22;5783;55.174;61.310;2023-04-09T17:28:50;20.70;24.10
11454;DHT22;5783;55.174;61.310;2023-04-09T17:31:19;20.80;24.20
11454;DHT22;5783;55.174;61.310;2023-04-09T17:33:50;20.70;24.20
11454;DHT22;5783;55.174;61.310;2023-04-09T17:36:19;20.70;24.20
11454;DHT22;5783;55.174;61.310;2023-04-09T17:38:49;20.70;24.20
11454;DHT22;5783;55.174;61.310;2023-04-09T17:41:18;20.70;24.20
11454;DHT22;5783;55.174;61.310;2023-04-09T17:43:48;20.70;24.30
11454;DHT22;5783;55.174;61.310;2023-04-09T17:46:17;20.70;24.20
11454;DHT22;5783;55.174;61.310;2023-04-09T17:48:47;20.70;24.30